sensor_id;sensor_type;location;lat;lon;timestamp;P1;durP1;ratioP1;P2;durP2;ratioP2
46875;SDS011;32866;50.160;14.768;2023-09-18T00:00:44;2.17;;;2.08;;
46875;SDS011;32866;50.160;14.768;2023-09-18T00:03:10;1.77;;;1.67;;
46875;SDS011;32866;50.160;14.768;2023-09-18T00:05:36;2.47;;;2.38;;
46875;SDS011;32866;50.160;14.768;2023-09-18T00:08:02;2.78;;;2.67;;
46875;SDS011;32866;50.160;14.768;2023-09-18T00:10:29;3.58;;;3.28;;
46875;SDS011;32866;50.160;14.768;2023-09-18T00:12:56;3.67;;;3.38;;
46875;SDS011;32866;50.160;14.768;2023-09-18T00:15:23;2.28;;;2.17;;
46875;SDS011;32866;50.160;14.768;2023-09-18T00:17:49;1.70;;;1.70;;
46875;SDS011;32866;50.160;14.768;2023-09-18T00:20:15;1.77;;;1.77;;
46875;SDS011;32866;50.160;14.768;2023-09-18T00:22:44;2.17;;;2.08;;
46875;SDS011;32866;50.160;14.768;2023-09-18T00:27:36;2.63;;;2.53;;
46875;SDS011;32866;50.160;14.768;2023-09-18T00:30:03;3.13;;;3.03;;
46875;SDS011;32866;50.160;14.768;2023-09-18T00:32:29;3.08;;;2.97;;
46875;SDS011;32866;50.160;14.768;2023-09-18T00:37:21;4.00;;;3.75;;
46875;SDS011;32866;50.160;14.768;2023-09-18T00:42:14;4.00;;;3.80;;
46875;SDS011;32866;50.160;14.768;2023-09-18T00:44:45;7.20;;;6.82;;
46875;SDS011;32866;50.160;14.768;2023-09-18T00:47:11;6.03;;;5.75;;
46875;SDS011;32866;50.160;14.768;2023-09-18T00:49:38;5.20;;;5.00;;
46875;SDS011;32866;50.160;14.768;2023-09-18T00:52:07;5.28;;;5.05;;
46875;SDS011;32866;50.160;14.768;2023-09-18T00:54:37;6.00;;;5.78;;
46875;SDS011;32866;50.160;14.768;2023-09-18T00:57:05;6.55;;;6.25;;
46875;SDS011;32866;50.160;14.768;2023-09-18T00:59:34;6.38;;;6.07;;
46875;SDS011;32866;50.160;14.768;2023-09-18T01:02:00;5.82;;;5.47;;
46875;SDS011;32866;50.160;14.768;2023-09-18T01:04:27;5.10;;;4.90;;
46875;SDS011;32866;50.160;14.768;2023-09-18T01:06:55;5.82;;;5.60;;
46875;SDS011;32866;50.160;14.768;2023-09-18T01:09:23;5.75;;;5.45;;
46875;SDS011;32866;50.160;14.768;2023-09-18T01:11:54;6.28;;;5.97;;
46875;SDS011;32866;50.160;14.768;2023-09-18T01:17:17;6.53;;;6.22;;
46875;SDS011;32866;50.160;14.768;2023-09-18T01:19:44;6.55;;;6.25;;
46875;SDS011;32866;50.160;14.768;2023-09-18T01:22:12;6.63;;;6.35;;
46875;SDS011;32866;50.160;14.768;2023-09-18T01:24:40;6.30;;;6.00;;
46875;SDS011;32866;50.160;14.768;2023-09-18T01:27:10;6.85;;;6.55;;
46875;SDS011;32866;50.160;14.768;2023-09-18T01:29:42;5.03;;;4.82;;
46875;SDS011;32866;50.160;14.768;2023-09-18T01:32:09;7.18;;;6.82;;
46875;SDS011;32866;50.160;14.768;2023-09-18T01:34:37;6.53;;;6.15;;
46875;SDS011;32866;50.160;14.768;2023-09-18T01:37:07;6.25;;;5.95;;
46875;SDS011;32866;50.160;14.768;2023-09-18T01:39:35;5.65;;;5.45;;
46875;SDS011;32866;50.160;14.768;2023-09-18T01:44:29;4.32;;;4.13;;
46875;SDS011;32866;50.160;14.768;2023-09-18T01:49:27;4.28;;;4.07;;
46875;SDS011;32866;50.160;14.768;2023-09-18T01:51:55;5.13;;;4.93;;
46875;SDS011;32866;50.160;14.768;2023-09-18T01:54:22;6.57;;;6.28;;
46875;SDS011;32866;50.160;14.768;2023-09-18T01:56:48;5.85;;;5.65;;
46875;SDS011;32866;50.160;14.768;2023-09-18T01:59:14;6.18;;;5.88;;
46875;SDS011;32866;50.160;14.768;2023-09-18T02:01:41;7.13;;;6.75;;
46875;SDS011;32866;50.160;14.768;2023-09-18T02:04:07;7.82;;;7.22;;
46875;SDS011;32866;50.160;14.768;2023-09-18T02:06:33;5.53;;;5.32;;
46875;SDS011;32866;50.160;14.768;2023-09-18T02:08:59;5.70;;;5.40;;
46875;SDS011;32866;50.160;14.768;2023-09-18T02:11:26;5.90;;;5.60;;
46875;SDS011;32866;50.160;14.768;2023-09-18T02:13:52;6.00;;;5.70;;
46875;SDS011;32866;50.160;14.768;2023-09-18T02:16:18;5.50;;;5.18;;
46875;SDS011;32866;50.160;14.768;2023-09-18T02:18:49;5.88;;;5.57;;
46875;SDS011;32866;50.160;14.768;2023-09-18T02:21:22;5.80;;;5.50;;
46875;SDS011;32866;50.160;14.768;2023-09-18T02:23:51;5.63;;;5.32;;
46875;SDS011;32866;50.160;14.768;2023-09-18T02:26:18;6.35;;;5.95;;
46875;SDS011;32866;50.160;14.768;2023-09-18T02:28:45;6.18;;;5.78;;
46875;SDS011;32866;50.160;14.768;2023-09-18T02:31:11;6.50;;;6.20;;
46875;SDS011;32866;50.160;14.768;2023-09-18T02:33:37;4.63;;;4.40;;
46875;SDS011;32866;50.160;14.768;2023-09-18T02:36:04;5.00;;;4.80;;
46875;SDS011;32866;50.160;14.768;2023-09-18T02:40:56;4.80;;;4.60;;
46875;SDS011;32866;50.160;14.768;2023-09-18T02:43:25;5.75;;;5.47;;
46875;SDS011;32866;50.160;14.768;2023-09-18T02:45:52;5.35;;;5.13;;
46875;SDS011;32866;50.160;14.768;2023-09-18T02:48:18;6.97;;;6.57;;
46875;SDS011;32866;50.160;14.768;2023-09-18T02:50:45;4.82;;;4.63;;
46875;SDS011;32866;50.160;14.768;2023-09-18T02:55:44;4.80;;;4.60;;
46875;SDS011;32866;50.160;14.768;2023-09-18T03:00:43;5.05;;;4.75;;
46875;SDS011;32866;50.160;14.768;2023-09-18T03:03:10;5.25;;;4.97;;
46875;SDS011;32866;50.160;14.768;2023-09-18T03:05:36;6.72;;;6.35;;
46875;SDS011;32866;50.160;14.768;2023-09-18T03:08:03;4.95;;;4.65;;
46875;SDS011;32866;50.160;14.768;2023-09-18T03:10:35;5.50;;;5.22;;
46875;SDS011;32866;50.160;14.768;2023-09-18T03:13:03;5.93;;;5.55;;
46875;SDS011;32866;50.160;14.768;2023-09-18T03:15:30;4.88;;;4.68;;
46875;SDS011;32866;50.160;14.768;2023-09-18T03:17:57;4.90;;;4.70;;
46875;SDS011;32866;50.160;14.768;2023-09-18T03:20:24;5.20;;;5.00;;
46875;SDS011;32866;50.160;14.768;2023-09-18T03:22:53;5.82;;;5.38;;
46875;SDS011;32866;50.160;14.768;2023-09-18T03:25:21;5.80;;;5.50;;
46875;SDS011;32866;50.160;14.768;2023-09-18T03:27:47;4.80;;;4.50;;
46875;SDS011;32866;50.160;14.768;2023-09-18T03:32:42;5.00;;;4.78;;
46875;SDS011;32866;50.160;14.768;2023-09-18T03:37:41;4.55;;;4.35;;
46875;SDS011;32866;50.160;14.768;2023-09-18T03:40:08;5.85;;;5.55;;
46875;SDS011;32866;50.160;14.768;2023-09-18T03:42:34;5.85;;;5.47;;
46875;SDS011;32866;50.160;14.768;2023-09-18T03:45:00;4.95;;;4.75;;
46875;SDS011;32866;50.160;14.768;2023-09-18T03:47:27;5.05;;;4.85;;
46875;SDS011;32866;50.160;14.768;2023-09-18T03:49:53;5.85;;;5.55;;
46875;SDS011;32866;50.160;14.768;2023-09-18T03:52:19;5.53;;;5.13;;
46875;SDS011;32866;50.160;14.768;2023-09-18T03:54:45;5.20;;;4.97;;
46875;SDS011;32866;50.160;14.768;2023-09-18T03:57:11;5.30;;;5.10;;
46875;SDS011;32866;50.160;14.768;2023-09-18T03:59:37;5.70;;;5.32;;
46875;SDS011;32866;50.160;14.768;2023-09-18T04:02:03;5.63;;;5.28;;
46875;SDS011;32866;50.160;14.768;2023-09-18T04:06:55;5.63;;;5.43;;
46875;SDS011;32866;50.160;14.768;2023-09-18T04:09:21;6.03;;;5.72;;
46875;SDS011;32866;50.160;14.768;2023-09-18T04:11:47;5.78;;;5.57;;
46875;SDS011;32866;50.160;14.768;2023-09-18T04:14:13;6.97;;;6.57;;
46875;SDS011;32866;50.160;14.768;2023-09-18T04:16:40;5.75;;;5.55;;
46875;SDS011;32866;50.160;14.768;2023-09-18T04:19:07;6.55;;;6.22;;
46875;SDS011;32866;50.160;14.768;2023-09-18T04:21:33;5.68;;;5.43;;
46875;SDS011;32866;50.160;14.768;2023-09-18T04:23:59;5.90;;;5.65;;
46875;SDS011;32866;50.160;14.768;2023-09-18T04:26:25;5.38;;;5.18;;
46875;SDS011;32866;50.160;14.768;2023-09-18T04:28:56;5.88;;;5.50;;
46875;SDS011;32866;50.160;14.768;2023-09-18T04:31:23;5.65;;;5.38;;
46875;SDS011;32866;50.160;14.768;2023-09-18T04:33:49;5.07;;;4.70;;
46875;SDS011;32866;50.160;14.768;2023-09-18T04:36:15;6.60;;;6.05;;
46875;SDS011;32866;50.160;14.768;2023-09-18T04:38:41;6.40;;;6.00;;
46875;SDS011;32866;50.160;14.768;2023-09-18T04:41:07;6.80;;;6.40;;
46875;SDS011;32866;50.160;14.768;2023-09-18T04:43:35;6.10;;;5.85;;
46875;SDS011;32866;50.160;14.768;2023-09-18T04:46:01;6.32;;;6.03;;
46875;SDS011;32866;50.160;14.768;2023-09-18T04:48:29;6.53;;;6.22;;
46875;SDS011;32866;50.160;14.768;2023-09-18T04:50:56;5.38;;;5.07;;
46875;SDS011;32866;50.160;14.768;2023-09-18T04:53:22;5.90;;;5.60;;
46875;SDS011;32866;50.160;14.768;2023-09-18T04:55:48;5.60;;;5.38;;
46875;SDS011;32866;50.160;14.768;2023-09-18T04:58:16;5.28;;;5.03;;
46875;SDS011;32866;50.160;14.768;2023-09-18T05:00:43;4.95;;;4.75;;
46875;SDS011;32866;50.160;14.768;2023-09-18T05:03:09;5.78;;;5.32;;
46875;SDS011;32866;50.160;14.768;2023-09-18T05:05:36;5.20;;;5.00;;
46875;SDS011;32866;50.160;14.768;2023-09-18T05:08:02;5.50;;;5.20;;
46875;SDS011;32866;50.160;14.768;2023-09-18T05:10:33;7.18;;;6.88;;
46875;SDS011;32866;50.160;14.768;2023-09-18T05:13:00;8.32;;;7.75;;
46875;SDS011;32866;50.160;14.768;2023-09-18T05:15:26;6.32;;;6.03;;
46875;SDS011;32866;50.160;14.768;2023-09-18T05:17:55;6.50;;;6.20;;
46875;SDS011;32866;50.160;14.768;2023-09-18T05:20:23;6.80;;;6.35;;
46875;SDS011;32866;50.160;14.768;2023-09-18T05:22:51;6.07;;;5.68;;
46875;SDS011;32866;50.160;14.768;2023-09-18T05:25:21;6.60;;;6.20;;
46875;SDS011;32866;50.160;14.768;2023-09-18T05:27:51;6.22;;;5.93;;
46875;SDS011;32866;50.160;14.768;2023-09-18T05:30:24;7.60;;;7.20;;
46875;SDS011;32866;50.160;14.768;2023-09-18T05:32:55;6.63;;;6.32;;
46875;SDS011;32866;50.160;14.768;2023-09-18T05:35:21;6.78;;;6.50;;
46875;SDS011;32866;50.160;14.768;2023-09-18T05:37:48;8.27;;;7.68;;
46875;SDS011;32866;50.160;14.768;2023-09-18T05:40:16;8.10;;;7.70;;
46875;SDS011;32866;50.160;14.768;2023-09-18T05:42:43;7.72;;;7.40;;
46875;SDS011;32866;50.160;14.768;2023-09-18T05:45:09;7.88;;;7.57;;
46875;SDS011;32866;50.160;14.768;2023-09-18T05:47:36;7.20;;;6.88;;
46875;SDS011;32866;50.160;14.768;2023-09-18T05:50:04;6.85;;;6.45;;
46875;SDS011;32866;50.160;14.768;2023-09-18T05:52:32;7.40;;;6.80;;
46875;SDS011;32866;50.160;14.768;2023-09-18T05:54:59;5.70;;;5.30;;
46875;SDS011;32866;50.160;14.768;2023-09-18T05:57:26;4.85;;;4.53;;
46875;SDS011;32866;50.160;14.768;2023-09-18T05:59:54;4.80;;;4.50;;
46875;SDS011;32866;50.160;14.768;2023-09-18T06:02:21;3.88;;;3.72;;
46875;SDS011;32866;50.160;14.768;2023-09-18T06:04:47;5.13;;;4.82;;
46875;SDS011;32866;50.160;14.768;2023-09-18T06:07:13;4.28;;;4.07;;
46875;SDS011;32866;50.160;14.768;2023-09-18T06:12:05;4.60;;;4.40;;
46875;SDS011;32866;50.160;14.768;2023-09-18T06:14:31;4.88;;;4.45;;
46875;SDS011;32866;50.160;14.768;2023-09-18T06:17:00;4.05;;;3.85;;
46875;SDS011;32866;50.160;14.768;2023-09-18T06:19:27;6.60;;;6.22;;
46875;SDS011;32866;50.160;14.768;2023-09-18T06:21:53;6.13;;;5.82;;
46875;SDS011;32866;50.160;14.768;2023-09-18T06:24:19;5.65;;;5.35;;
46875;SDS011;32866;50.160;14.768;2023-09-18T06:31:38;4.10;;;3.90;;
46875;SDS011;32866;50.160;14.768;2023-09-18T06:36:30;4.13;;;3.92;;
46875;SDS011;32866;50.160;14.768;2023-09-18T06:41:22;3.25;;;2.97;;
46875;SDS011;32866;50.160;14.768;2023-09-18T06:46:14;2.38;;;2.25;;
46875;SDS011;32866;50.160;14.768;2023-09-18T06:51:05;3.25;;;3.05;;
46875;SDS011;32866;50.160;14.768;2023-09-18T06:53:32;2.65;;;2.45;;
46875;SDS011;32866;50.160;14.768;2023-09-18T06:58:23;2.22;;;2.13;;
46875;SDS011;32866;50.160;14.768;2023-09-18T07:03:18;3.10;;;2.20;;
46875;SDS011;32866;50.160;14.768;2023-09-18T07:05:44;3.05;;;2.92;;
46875;SDS011;32866;50.160;14.768;2023-09-18T07:08:11;3.97;;;3.67;;
46875;SDS011;32866;50.160;14.768;2023-09-18T07:10:38;3.72;;;3.53;;
46875;SDS011;32866;50.160;14.768;2023-09-18T07:13:05;3.35;;;3.15;;
46875;SDS011;32866;50.160;14.768;2023-09-18T07:15:31;3.10;;;2.90;;
46875;SDS011;32866;50.160;14.768;2023-09-18T07:17:57;2.45;;;2.25;;
46875;SDS011;32866;50.160;14.768;2023-09-18T07:20:23;3.17;;;2.95;;
46875;SDS011;32866;50.160;14.768;2023-09-18T07:22:49;2.00;;;1.90;;
46875;SDS011;32866;50.160;14.768;2023-09-18T07:25:16;2.33;;;2.22;;
46875;SDS011;32866;50.160;14.768;2023-09-18T07:27:42;2.20;;;2.03;;
46875;SDS011;32866;50.160;14.768;2023-09-18T07:30:12;2.33;;;2.22;;
46875;SDS011;32866;50.160;14.768;2023-09-18T07:32:42;2.03;;;1.92;;
46875;SDS011;32866;50.160;14.768;2023-09-18T07:35:09;1.48;;;1.38;;
46875;SDS011;32866;50.160;14.768;2023-09-18T07:37:35;2.45;;;1.92;;
46875;SDS011;32866;50.160;14.768;2023-09-18T07:40:03;2.25;;;1.55;;
46875;SDS011;32866;50.160;14.768;2023-09-18T07:42:30;1.88;;;1.77;;
46875;SDS011;32866;50.160;14.768;2023-09-18T07:44:56;2.22;;;2.03;;
46875;SDS011;32866;50.160;14.768;2023-09-18T07:47:22;1.42;;;1.40;;
46875;SDS011;32866;50.160;14.768;2023-09-18T07:49:48;2.22;;;2.13;;
46875;SDS011;32866;50.160;14.768;2023-09-18T07:52:14;1.30;;;1.30;;
46875;SDS011;32866;50.160;14.768;2023-09-18T07:54:41;1.95;;;1.85;;
46875;SDS011;32866;50.160;14.768;2023-09-18T07:57:07;1.10;;;1.10;;
46875;SDS011;32866;50.160;14.768;2023-09-18T07:59:35;1.45;;;1.35;;
46875;SDS011;32866;50.160;14.768;2023-09-18T08:02:02;1.52;;;1.42;;
46875;SDS011;32866;50.160;14.768;2023-09-18T08:04:30;1.73;;;1.63;;
46875;SDS011;32866;50.160;14.768;2023-09-18T08:06:57;1.38;;;1.27;;
46875;SDS011;32866;50.160;14.768;2023-09-18T08:09:23;14.10;;;2.03;;
46875;SDS011;32866;50.160;14.768;2023-09-18T08:11:49;2.53;;;2.33;;
46875;SDS011;32866;50.160;14.768;2023-09-18T08:14:15;2.45;;;2.10;;
46875;SDS011;32866;50.160;14.768;2023-09-18T08:16:42;1.67;;;1.58;;
46875;SDS011;32866;50.160;14.768;2023-09-18T08:19:08;2.13;;;2.03;;
46875;SDS011;32866;50.160;14.768;2023-09-18T08:21:35;1.65;;;1.55;;
46875;SDS011;32866;50.160;14.768;2023-09-18T08:24:01;2.20;;;1.85;;
46875;SDS011;32866;50.160;14.768;2023-09-18T08:26:27;1.80;;;1.70;;
46875;SDS011;32866;50.160;14.768;2023-09-18T08:28:54;1.48;;;1.48;;
46875;SDS011;32866;50.160;14.768;2023-09-18T08:31:20;1.65;;;1.55;;
46875;SDS011;32866;50.160;14.768;2023-09-18T08:33:46;1.92;;;1.83;;
46875;SDS011;32866;50.160;14.768;2023-09-18T08:36:12;1.73;;;1.63;;
46875;SDS011;32866;50.160;14.768;2023-09-18T08:38:38;1.52;;;1.45;;
46875;SDS011;32866;50.160;14.768;2023-09-18T08:41:04;2.08;;;1.10;;
46875;SDS011;32866;50.160;14.768;2023-09-18T08:43:31;1.70;;;1.60;;
46875;SDS011;32866;50.160;14.768;2023-09-18T08:45:57;1.05;;;1.05;;
46875;SDS011;32866;50.160;14.768;2023-09-18T08:48:28;1.27;;;1.27;;
46875;SDS011;32866;50.160;14.768;2023-09-18T08:51:01;0.80;;;0.80;;
46875;SDS011;32866;50.160;14.768;2023-09-18T08:53:34;1.35;;;1.35;;
46875;SDS011;32866;50.160;14.768;2023-09-18T08:56:02;1.75;;;1.50;;
46875;SDS011;32866;50.160;14.768;2023-09-18T08:58:33;0.95;;;0.93;;
46875;SDS011;32866;50.160;14.768;2023-09-18T09:01:03;1.73;;;1.63;;
46875;SDS011;32866;50.160;14.768;2023-09-18T09:03:31;1.63;;;1.52;;
46875;SDS011;32866;50.160;14.768;2023-09-18T09:06:00;2.08;;;1.98;;
46875;SDS011;32866;50.160;14.768;2023-09-18T09:08:29;1.13;;;1.13;;
46875;SDS011;32866;50.160;14.768;2023-09-18T09:10:55;1.10;;;1.10;;
46875;SDS011;32866;50.160;14.768;2023-09-18T09:13:24;1.50;;;1.40;;
46875;SDS011;32866;50.160;14.768;2023-09-18T09:15:53;1.27;;;1.17;;
46875;SDS011;32866;50.160;14.768;2023-09-18T09:18:25;1.42;;;1.33;;
46875;SDS011;32866;50.160;14.768;2023-09-18T09:20:53;1.80;;;1.70;;
46875;SDS011;32866;50.160;14.768;2023-09-18T09:23:24;1.35;;;1.25;;
46875;SDS011;32866;50.160;14.768;2023-09-18T09:25:52;1.35;;;1.27;;
46875;SDS011;32866;50.160;14.768;2023-09-18T09:28:28;1.67;;;0.95;;
46875;SDS011;32866;50.160;14.768;2023-09-18T09:31:00;1.23;;;1.13;;
46875;SDS011;32866;50.160;14.768;2023-09-18T09:33:28;1.02;;;1.02;;
46875;SDS011;32866;50.160;14.768;2023-09-18T09:35:55;0.90;;;0.90;;
46875;SDS011;32866;50.160;14.768;2023-09-18T09:38:28;1.02;;;1.00;;
46875;SDS011;32866;50.160;14.768;2023-09-18T09:40:57;0.87;;;0.87;;
46875;SDS011;32866;50.160;14.768;2023-09-18T09:43:27;0.88;;;0.88;;
46875;SDS011;32866;50.160;14.768;2023-09-18T09:45:59;1.15;;;1.15;;
46875;SDS011;32866;50.160;14.768;2023-09-18T09:48:27;1.00;;;1.00;;
46875;SDS011;32866;50.160;14.768;2023-09-18T09:50:59;0.82;;;0.82;;
46875;SDS011;32866;50.160;14.768;2023-09-18T09:53:42;0.98;;;0.90;;
46875;SDS011;32866;50.160;14.768;2023-09-18T09:56:14;0.60;;;0.60;;
46875;SDS011;32866;50.160;14.768;2023-09-18T09:58:40;1.33;;;1.13;;
46875;SDS011;32866;50.160;14.768;2023-09-18T10:01:11;0.50;;;0.50;;
46875;SDS011;32866;50.160;14.768;2023-09-18T10:03:43;0.90;;;0.90;;
46875;SDS011;32866;50.160;14.768;2023-09-18T10:06:10;1.15;;;1.10;;
46875;SDS011;32866;50.160;14.768;2023-09-18T10:08:39;0.70;;;0.70;;
46875;SDS011;32866;50.160;14.768;2023-09-18T10:11:07;1.00;;;0.75;;
46875;SDS011;32866;50.160;14.768;2023-09-18T10:13:41;1.20;;;1.10;;
46875;SDS011;32866;50.160;14.768;2023-09-18T10:16:12;1.25;;;1.23;;
46875;SDS011;32866;50.160;14.768;2023-09-18T10:24:39;1.38;;;1.27;;
46875;SDS011;32866;50.160;14.768;2023-09-18T10:27:11;1.63;;;1.52;;
46875;SDS011;32866;50.160;14.768;2023-09-18T10:29:41;0.77;;;0.77;;
46875;SDS011;32866;50.160;14.768;2023-09-18T10:32:07;1.35;;;0.70;;
46875;SDS011;32866;50.160;14.768;2023-09-18T10:34:34;0.80;;;0.80;;
46875;SDS011;32866;50.160;14.768;2023-09-18T10:37:01;0.80;;;0.80;;
46875;SDS011;32866;50.160;14.768;2023-09-18T10:39:35;0.80;;;0.80;;
46875;SDS011;32866;50.160;14.768;2023-09-18T10:42:04;1.08;;;1.08;;
46875;SDS011;32866;50.160;14.768;2023-09-18T10:44:33;1.95;;;1.08;;
46875;SDS011;32866;50.160;14.768;2023-09-18T10:47:00;0.93;;;0.93;;
46875;SDS011;32866;50.160;14.768;2023-09-18T10:49:28;1.17;;;1.13;;
46875;SDS011;32866;50.160;14.768;2023-09-18T10:51:55;1.13;;;1.10;;
46875;SDS011;32866;50.160;14.768;2023-09-18T10:54:25;1.30;;;1.20;;
46875;SDS011;32866;50.160;14.768;2023-09-18T10:56:53;0.80;;;0.80;;
46875;SDS011;32866;50.160;14.768;2023-09-18T10:59:21;1.33;;;1.23;;
46875;SDS011;32866;50.160;14.768;2023-09-18T11:01:47;1.02;;;0.93;;
46875;SDS011;32866;50.160;14.768;2023-09-18T11:04:19;0.90;;;0.90;;
46875;SDS011;32866;50.160;14.768;2023-09-18T11:09:25;0.95;;;0.95;;
46875;SDS011;32866;50.160;14.768;2023-09-18T11:20:01;0.75;;;0.75;;
46875;SDS011;32866;50.160;14.768;2023-09-18T11:22:38;0.73;;;0.73;;
46875;SDS011;32866;50.160;14.768;2023-09-18T11:28:22;1.08;;;0.98;;
46875;SDS011;32866;50.160;14.768;2023-09-18T11:30:53;0.38;;;0.38;;
46875;SDS011;32866;50.160;14.768;2023-09-18T11:33:31;0.73;;;0.73;;
46875;SDS011;32866;50.160;14.768;2023-09-18T11:36:06;0.70;;;0.70;;
46875;SDS011;32866;50.160;14.768;2023-09-18T11:41:23;0.52;;;0.52;;
46875;SDS011;32866;50.160;14.768;2023-09-18T11:44:31;2.47;;;1.08;;
46875;SDS011;32866;50.160;14.768;2023-09-18T11:46:53;0.93;;;0.93;;
46875;SDS011;32866;50.160;14.768;2023-09-18T11:49:21;0.30;;;0.30;;
46875;SDS011;32866;50.160;14.768;2023-09-18T11:51:49;2.20;;;1.10;;
46875;SDS011;32866;50.160;14.768;2023-09-18T11:54:16;0.60;;;0.60;;
46875;SDS011;32866;50.160;14.768;2023-09-18T11:56:43;0.85;;;0.85;;
46875;SDS011;32866;50.160;14.768;2023-09-18T11:59:10;0.40;;;0.40;;
46875;SDS011;32866;50.160;14.768;2023-09-18T12:01:37;0.57;;;0.57;;
46875;SDS011;32866;50.160;14.768;2023-09-18T12:04:09;1.00;;;0.85;;
46875;SDS011;32866;50.160;14.768;2023-09-18T12:06:40;0.60;;;0.60;;
46875;SDS011;32866;50.160;14.768;2023-09-18T12:09:07;0.52;;;0.52;;
46875;SDS011;32866;50.160;14.768;2023-09-18T12:11:34;0.70;;;0.70;;
46875;SDS011;32866;50.160;14.768;2023-09-18T12:14:03;1.08;;;1.00;;
46875;SDS011;32866;50.160;14.768;2023-09-18T12:16:30;0.80;;;0.80;;
46875;SDS011;32866;50.160;14.768;2023-09-18T12:19:03;0.80;;;0.80;;
46875;SDS011;32866;50.160;14.768;2023-09-18T12:21:32;0.77;;;0.77;;
46875;SDS011;32866;50.160;14.768;2023-09-18T12:23:58;0.95;;;0.90;;
46875;SDS011;32866;50.160;14.768;2023-09-18T12:26:25;0.75;;;0.75;;
46875;SDS011;32866;50.160;14.768;2023-09-18T12:28:51;1.02;;;0.85;;
46875;SDS011;32866;50.160;14.768;2023-09-18T12:31:17;1.33;;;0.98;;
46875;SDS011;32866;50.160;14.768;2023-09-18T12:33:43;0.63;;;0.57;;
46875;SDS011;32866;50.160;14.768;2023-09-18T12:36:10;0.73;;;0.73;;
46875;SDS011;32866;50.160;14.768;2023-09-18T12:38:36;1.42;;;1.05;;
46875;SDS011;32866;50.160;14.768;2023-09-18T12:41:03;0.60;;;0.60;;
46875;SDS011;32866;50.160;14.768;2023-09-18T12:43:37;0.82;;;0.82;;
46875;SDS011;32866;50.160;14.768;2023-09-18T12:46:05;0.90;;;0.90;;
46875;SDS011;32866;50.160;14.768;2023-09-18T12:48:32;1.52;;;0.95;;
46875;SDS011;32866;50.160;14.768;2023-09-18T12:51:06;2.38;;;0.50;;
46875;SDS011;32866;50.160;14.768;2023-09-18T12:53:33;0.73;;;0.73;;
46875;SDS011;32866;50.160;14.768;2023-09-18T12:56:07;0.70;;;0.70;;
46875;SDS011;32866;50.160;14.768;2023-09-18T12:58:34;0.50;;;0.50;;
46875;SDS011;32866;50.160;14.768;2023-09-18T13:01:04;0.90;;;0.90;;
46875;SDS011;32866;50.160;14.768;2023-09-18T13:03:35;0.82;;;0.82;;
46875;SDS011;32866;50.160;14.768;2023-09-18T13:06:07;0.55;;;0.55;;
46875;SDS011;32866;50.160;14.768;2023-09-18T13:08:34;0.98;;;0.95;;
46875;SDS011;32866;50.160;14.768;2023-09-18T13:11:00;1.02;;;0.82;;
46875;SDS011;32866;50.160;14.768;2023-09-18T13:13:28;0.73;;;0.43;;
46875;SDS011;32866;50.160;14.768;2023-09-18T13:15:58;1.08;;;1.00;;
46875;SDS011;32866;50.160;14.768;2023-09-18T13:18:25;0.80;;;0.80;;
46875;SDS011;32866;50.160;14.768;2023-09-18T13:20:52;0.98;;;0.98;;
46875;SDS011;32866;50.160;14.768;2023-09-18T13:23:19;0.75;;;0.75;;
46875;SDS011;32866;50.160;14.768;2023-09-18T13:25:45;0.60;;;0.60;;
46875;SDS011;32866;50.160;14.768;2023-09-18T13:28:13;0.55;;;0.55;;
46875;SDS011;32866;50.160;14.768;2023-09-18T13:30:40;0.70;;;0.70;;
46875;SDS011;32866;50.160;14.768;2023-09-18T13:33:08;0.93;;;0.93;;
46875;SDS011;32866;50.160;14.768;2023-09-18T13:35:35;0.55;;;0.55;;
46875;SDS011;32866;50.160;14.768;2023-09-18T13:38:03;0.73;;;0.73;;
46875;SDS011;32866;50.160;14.768;2023-09-18T13:40:31;1.20;;;0.88;;
46875;SDS011;32866;50.160;14.768;2023-09-18T13:42:59;0.90;;;0.90;;
46875;SDS011;32866;50.160;14.768;2023-09-18T13:45:25;0.73;;;0.73;;
46875;SDS011;32866;50.160;14.768;2023-09-18T13:47:51;1.35;;;1.25;;
46875;SDS011;32866;50.160;14.768;2023-09-18T13:50:17;0.80;;;0.80;;
46875;SDS011;32866;50.160;14.768;2023-09-18T13:52:43;0.55;;;0.55;;
46875;SDS011;32866;50.160;14.768;2023-09-18T13:55:09;1.17;;;1.17;;
46875;SDS011;32866;50.160;14.768;2023-09-18T13:57:35;0.93;;;0.93;;
46875;SDS011;32866;50.160;14.768;2023-09-18T14:00:02;1.08;;;1.08;;
46875;SDS011;32866;50.160;14.768;2023-09-18T14:02:34;0.70;;;0.70;;
46875;SDS011;32866;50.160;14.768;2023-09-18T14:05:00;1.10;;;1.10;;
46875;SDS011;32866;50.160;14.768;2023-09-18T14:07:26;1.30;;;0.82;;
46875;SDS011;32866;50.160;14.768;2023-09-18T14:09:52;0.65;;;0.65;;
46875;SDS011;32866;50.160;14.768;2023-09-18T14:12:18;0.77;;;0.77;;
46875;SDS011;32866;50.160;14.768;2023-09-18T14:14:44;1.05;;;1.05;;
46875;SDS011;32866;50.160;14.768;2023-09-18T14:17:10;1.45;;;1.25;;
46875;SDS011;32866;50.160;14.768;2023-09-18T14:19:37;0.98;;;0.98;;
46875;SDS011;32866;50.160;14.768;2023-09-18T14:22:06;1.25;;;1.15;;
46875;SDS011;32866;50.160;14.768;2023-09-18T14:24:33;1.00;;;1.00;;
46875;SDS011;32866;50.160;14.768;2023-09-18T14:27:00;1.13;;;1.13;;
46875;SDS011;32866;50.160;14.768;2023-09-18T14:29:26;1.35;;;1.10;;
46875;SDS011;32866;50.160;14.768;2023-09-18T14:31:52;1.13;;;1.13;;
46875;SDS011;32866;50.160;14.768;2023-09-18T14:34:19;0.88;;;0.88;;
46875;SDS011;32866;50.160;14.768;2023-09-18T14:36:45;1.00;;;1.00;;
46875;SDS011;32866;50.160;14.768;2023-09-18T14:39:12;1.40;;;1.30;;
46875;SDS011;32866;50.160;14.768;2023-09-18T14:41:38;0.85;;;0.80;;
46875;SDS011;32866;50.160;14.768;2023-09-18T14:44:05;1.40;;;1.00;;
46875;SDS011;32866;50.160;14.768;2023-09-18T14:46:34;1.30;;;1.20;;
46875;SDS011;32866;50.160;14.768;2023-09-18T14:49:03;0.73;;;0.73;;
46875;SDS011;32866;50.160;14.768;2023-09-18T14:51:30;0.90;;;0.90;;
46875;SDS011;32866;50.160;14.768;2023-09-18T14:54:00;0.75;;;0.75;;
46875;SDS011;32866;50.160;14.768;2023-09-18T14:56:26;1.30;;;1.00;;
46875;SDS011;32866;50.160;14.768;2023-09-18T14:58:53;0.60;;;0.60;;
46875;SDS011;32866;50.160;14.768;2023-09-18T15:01:21;0.82;;;0.82;;
46875;SDS011;32866;50.160;14.768;2023-09-18T15:03:48;0.70;;;0.70;;
46875;SDS011;32866;50.160;14.768;2023-09-18T15:06:14;1.85;;;0.93;;
46875;SDS011;32866;50.160;14.768;2023-09-18T15:08:41;1.02;;;1.02;;
46875;SDS011;32866;50.160;14.768;2023-09-18T15:11:07;1.42;;;1.17;;
46875;SDS011;32866;50.160;14.768;2023-09-18T15:13:33;1.50;;;1.40;;
46875;SDS011;32866;50.160;14.768;2023-09-18T15:16:03;0.77;;;0.77;;
46875;SDS011;32866;50.160;14.768;2023-09-18T15:18:29;2.15;;;1.33;;
46875;SDS011;32866;50.160;14.768;2023-09-18T15:20:55;0.90;;;0.90;;
46875;SDS011;32866;50.160;14.768;2023-09-18T15:23:21;1.02;;;1.02;;
46875;SDS011;32866;50.160;14.768;2023-09-18T15:25:51;1.67;;;1.58;;
46875;SDS011;32866;50.160;14.768;2023-09-18T15:28:19;1.23;;;1.20;;
46875;SDS011;32866;50.160;14.768;2023-09-18T15:30:46;1.20;;;1.20;;
46875;SDS011;32866;50.160;14.768;2023-09-18T15:33:13;1.23;;;1.23;;
46875;SDS011;32866;50.160;14.768;2023-09-18T15:35:40;0.90;;;0.90;;
46875;SDS011;32866;50.160;14.768;2023-09-18T15:38:06;1.00;;;1.00;;
46875;SDS011;32866;50.160;14.768;2023-09-18T15:40:33;1.15;;;1.10;;
46875;SDS011;32866;50.160;14.768;2023-09-18T15:42:59;1.38;;;1.27;;
46875;SDS011;32866;50.160;14.768;2023-09-18T15:45:25;1.30;;;1.20;;
46875;SDS011;32866;50.160;14.768;2023-09-18T15:47:51;1.85;;;1.00;;
46875;SDS011;32866;50.160;14.768;2023-09-18T15:50:17;1.20;;;1.10;;